Time;durP1;ratioP1;P1;durP2;ratioP2;P2;SDS_P1;SDS_P2;PMS_P1;PMS_P2;Temp;Humidity;BMP_temperature;BMP_pressure;BME280_temperature;BME280_humidity;BME280_pressure;Samples;Min_cycle;Max_cycle;Signal;HPM_P1;HPM_P2
2021/11/03 00:02:11;;;;;;;5.20;4.03;;;;;;;2.47;100.00;97814.44;5035329;28;20033;-58
2021/11/03 00:04:38;;;;;;;6.43;3.93;;;;;;;2.45;100.00;97816.13;5032284;28;20065;-56
2021/11/03 00:07:05;;;;;;;4.93;3.90;;;;;;;2.57;100.00;97824.56;5036571;28;20041;-58
2021/11/03 00:09:31;;;;;;;7.33;4.20;;;;;;;2.60;100.00;97821.16;5029569;28;20045;-56
2021/11/03 00:11:57;;;;;;;10.27;6.03;;;;;;;2.58;100.00;97821.19;5028181;28;20037;-59
2021/11/03 00:14:22;;;;;;;9.00;4.00;;;;;;;2.58;100.00;97818.66;5028887;28;20078;-59
2021/11/03 00:16:48;;;;;;;5.63;3.63;;;;;;;2.61;100.00;97822.88;5027130;28;20037;-55
2021/11/03 00:19:13;;;;;;;3.50;3.10;;;;;;;2.75;100.00;97824.56;5027295;28;20029;-57
2021/11/03 00:21:38;;;;;;;4.50;3.43;;;;;;;2.75;100.00;97824.56;5029231;28;20100;-57
2021/11/03 00:24:05;;;;;;;5.27;3.60;;;;;;;2.79;100.00;97819.47;5027627;28;20026;-57
2021/11/03 00:26:30;;;;;;;4.37;3.40;;;;;;;2.81;100.00;97823.69;5025076;28;20038;-58
2021/11/03 00:28:57;;;;;;;3.57;2.90;;;;;;;2.79;100.00;97814.41;5024194;28;20052;-57
2021/11/03 00:31:22;;;;;;;2.47;2.27;;;;;;;3.09;100.00;97811.81;5029097;28;20038;-58
2021/11/03 00:33:48;;;;;;;3.37;2.00;;;;;;;3.40;100.00;97808.31;5028761;28;20028;-58
2021/11/03 00:36:13;;;;;;;1.37;1.27;;;;;;;3.73;100.00;97809.03;5025159;28;20029;-60
2021/11/03 00:38:39;;;;;;;3.33;1.60;;;;;;;3.98;100.00;97813.13;5027348;28;20051;-58
2021/11/03 00:41:05;;;;;;;2.07;1.70;;;;;;;3.97;100.00;97804.66;5025366;28;20672;-60
2021/11/03 00:43:30;;;;;;;2.03;1.83;;;;;;;3.89;100.00;97805.56;5031581;28;20033;-59
2021/11/03 00:45:56;;;;;;;2.67;2.07;;;;;;;3.78;100.00;97812.38;5028491;28;20518;-57
2021/11/03 00:48:21;;;;;;;2.77;2.07;;;;;;;3.77;100.00;97814.09;5025669;28;20036;-58
2021/11/03 00:50:47;;;;;;;3.10;2.43;;;;;;;3.65;100.00;97814.97;5029237;28;20678;-55
2021/11/03 00:53:13;;;;;;;3.20;2.43;;;;;;;3.52;100.00;97807.44;5022272;28;20025;-58
2021/11/03 00:55:40;;;;;;;2.60;2.20;;;;;;;3.54;100.00;97793.91;5020515;28;20037;-58
2021/11/03 00:58:06;;;;;;;1.93;1.80;;;;;;;3.49;100.00;97789.72;5021818;28;20060;-58
2021/11/03 01:00:32;;;;;;;2.13;1.80;;;;;;;3.51;100.00;97795.63;5024259;28;20487;-57
2021/11/03 01:02:58;;;;;;;3.97;2.23;;;;;;;3.38;100.00;97791.47;5024457;28;20053;-55
2021/11/03 01:05:26;;;;;;;4.97;2.17;;;;;;;3.45;100.00;97786.34;5022208;28;20022;-58
2021/11/03 01:07:51;;;;;;;2.10;1.90;;;;;;;3.48;100.00;97778.72;5026594;28;20029;-57
2021/11/03 01:10:19;;;;;;;2.37;2.17;;;;;;;3.54;100.00;97786.31;5029469;28;20029;-59
2021/11/03 01:12:45;;;;;;;2.33;1.87;;;;;;;3.59;100.00;97786.28;5026372;28;20042;-58
2021/11/03 01:15:14;;;;;;;3.60;1.63;;;;;;;3.65;100.00;97783.69;5027015;28;20034;-54
2021/11/03 01:17:40;;;;;;;2.50;1.63;;;;;;;3.66;100.00;97786.25;5028967;28;20392;-55
2021/11/03 01:20:10;;;;;;;2.70;1.73;;;;;;;3.69;100.00;97787.94;5028020;28;20021;-56
2021/11/03 01:22:36;;;;;;;1.50;1.40;;;;;;;3.73;100.00;97776.09;5027080;28;20064;-55
2021/11/03 01:25:04;;;;;;;2.87;2.13;;;;;;;3.80;100.00;97776.03;5025132;28;20035;-55
2021/11/03 01:27:29;;;;;;;2.00;1.80;;;;;;;3.82;100.00;97783.63;5029139;28;20498;-54
2021/11/03 01:29:55;;;;;;;4.10;1.70;;;;;;;3.77;100.00;97773.53;5026028;28;20021;-53
2021/11/03 01:32:20;;;;;;;1.40;1.30;;;;;;;3.84;100.00;97780.22;5025949;28;20029;-57
2021/11/03 01:34:45;;;;;;;1.60;1.50;;;;;;;3.89;100.00;97775.13;5028983;28;20048;-54
2021/11/03 01:37:11;;;;;;;2.40;1.47;;;;;;;3.95;100.00;97768.31;5032888;28;20029;-57
2021/11/03 01:39:36;;;;;;;0.80;0.80;;;;;;;3.96;100.00;97772.53;5027294;28;20040;-57
2021/11/03 01:42:02;;;;;;;2.27;1.67;;;;;;;3.93;100.00;97776.78;5030690;28;20400;-58
2021/11/03 01:44:27;;;;;;;2.10;1.90;;;;;;;3.86;100.00;97782.75;5023598;28;20297;-54
2021/11/03 01:46:56;;;;;;;3.50;2.13;;;;;;;3.82;100.00;97778.56;5033925;28;20033;-56
2021/11/03 01:49:26;;;;;;;2.63;2.10;;;;;;;3.74;100.00;97786.19;5028193;28;20375;-58
2021/11/03 01:51:55;;;;;;;2.27;1.80;;;;;;;3.63;100.00;97791.34;5027888;28;20033;-59
2021/11/03 01:54:28;;;;;;;2.97;1.80;;;;;;;3.51;100.00;97782.94;5026879;28;20299;-54
2021/11/03 01:56:55;;;;;;;2.63;2.00;;;;;;;3.40;100.00;97793.13;5025331;28;20038;-58
2021/11/03 01:59:35;;;;;;;4.60;2.20;;;;;;;3.33;100.00;97788.94;5026469;28;20025;-54
2021/11/03 02:02:02;;;;;;;4.57;2.30;;;;;;;3.23;100.00;97779.69;5026892;28;20051;-55
2021/11/03 02:04:30;;;;;;;5.90;2.00;;;;;;;3.25;100.00;97780.53;5031156;28;20035;-56
2021/11/03 02:06:59;;;;;;;2.77;1.97;;;;;;;3.20;100.00;97780.53;5024379;28;20071;-56
2021/11/03 02:09:25;;;;;;;2.10;1.90;;;;;;;3.22;100.00;97778.84;5022335;28;20486;-57
2021/11/03 02:11:51;;;;;;;2.23;2.03;;;;;;;3.17;100.00;97775.50;5023190;28;20291;-57
2021/11/03 02:14:16;;;;;;;2.77;2.57;;;;;;;3.11;100.00;97772.97;5025901;28;20021;-58
2021/11/03 02:16:46;;;;;;;2.50;2.30;;;;;;;3.10;100.00;97794.06;5027874;28;20061;-57
2021/11/03 02:19:17;;;;;;;1.90;1.73;;;;;;;2.94;100.00;97786.53;5023224;28;20029;-58
2021/11/03 02:22:10;;;;;;;2.23;2.03;;;;;;;2.86;100.00;97790.78;5023165;28;20033;-56
2021/11/03 02:24:44;;;;;;;2.23;2.03;;;;;;;2.79;100.00;97786.56;5026874;28;20103;-57
2021/11/03 02:27:12;;;;;;;2.70;2.17;;;;;;;2.67;100.00;97780.69;5024148;28;20430;-56
2021/11/03 02:29:37;;;;;;;2.43;2.23;;;;;;;2.66;100.00;97775.63;5022619;28;20482;-58
2021/11/03 02:32:23;;;;;;;2.97;2.57;;;;;;;2.78;100.00;97774.75;5022899;28;20036;-56
2021/11/03 02:34:49;;;;;;;1.77;1.58;;;;;;;2.69;100.00;97773.09;5025072;28;20121;-60
2021/11/03 02:37:36;;;;;;;2.30;2.10;;;;;;;2.65;100.00;97772.25;5022211;28;20111;-60
2021/11/03 02:40:12;;;;;;;3.03;2.03;;;;;;;2.63;100.00;97761.28;5021563;28;20024;-54
2021/11/03 02:42:44;;;;;;;3.20;2.20;;;;;;;2.57;100.00;97760.47;5025194;28;20075;-55
2021/11/03 02:45:42;;;;;;;2.30;2.10;;;;;;;2.50;100.00;97756.28;5025159;28;20448;-57
2021/11/03 02:48:08;;;;;;;3.37;2.13;;;;;;;2.44;100.00;97756.25;5023727;28;20057;-56
2021/11/03 02:50:35;;;;;;;2.27;1.87;;;;;;;2.44;100.00;97749.53;5023744;28;20022;-56
2021/11/03 02:53:00;;;;;;;2.87;2.67;;;;;;;2.40;100.00;97750.38;5028907;28;20075;-57
2021/11/03 02:55:25;;;;;;;2.37;1.90;;;;;;;2.39;100.00;97751.22;5026456;28;20030;-54
2021/11/03 02:57:51;;;;;;;2.53;1.90;;;;;;;2.36;100.00;97755.44;5025037;28;20106;-54
2021/11/03 03:00:20;;;;;;;2.33;1.80;;;;;;;2.37;100.00;97745.31;5026365;28;20029;-56
2021/11/03 03:02:45;;;;;;;3.37;2.30;;;;;;;2.30;100.00;97752.06;5027069;28;20042;-55
2021/11/03 03:05:11;;;;;;;3.50;2.10;;;;;;;2.23;100.00;97745.31;5025300;28;20075;-52
2021/11/03 03:07:37;;;;;;;5.90;2.93;;;;;;;2.17;100.00;97740.25;5024357;28;20040;-54
2021/11/03 03:10:04;;;;;;;3.33;2.50;;;;;;;2.09;100.00;97736.06;5023377;28;20029;-53
2021/11/03 03:12:31;;;;;;;4.53;2.70;;;;;;;2.03;100.00;97741.97;5039078;28;20475;-53
2021/11/03 03:14:57;;;;;;;3.33;1.97;;;;;;;2.02;100.00;97742.81;5032420;28;20303;-58
2021/11/03 03:17:23;;;;;;;2.47;1.90;;;;;;;1.95;100.00;97737.75;5030675;28;20391;-54
2021/11/03 03:19:48;;;;;;;2.30;1.90;;;;;;;1.93;100.00;97739.41;5031984;28;20025;-55
2021/11/03 03:22:16;;;;;;;3.03;1.53;;;;;;;1.95;100.00;97733.53;5028716;28;20095;-56
2021/11/03 03:24:42;;;;;;;2.63;2.43;;;;;;;1.93;100.00;97735.22;5028802;28;20072;-54
2021/11/03 03:27:08;;;;;;;2.70;1.80;;;;;;;1.95;100.00;97732.69;5030540;28;20083;-56
2021/11/03 03:29:33;;;;;;;3.23;2.00;;;;;;;1.91;100.00;97721.72;5027419;28;20033;-55
2021/11/03 03:31:59;;;;;;;2.10;1.93;;;;;;;1.96;100.00;97726.78;5035342;28;20030;-56
2021/11/03 03:34:25;;;;;;;1.93;1.83;;;;;;;1.95;100.00;97720.91;5027049;28;20033;-57
2021/11/03 03:36:53;;;;;;;2.00;1.80;;;;;;;1.95;100.00;97730.16;5029207;28;20427;-53
2021/11/03 03:39:21;;;;;;;1.93;1.73;;;;;;;1.95;100.00;97727.66;5029860;28;20037;-52
2021/11/03 03:41:58;;;;;;;3.33;2.40;;;;;;;1.99;100.00;97734.38;5029432;28;20064;-52
2021/11/03 03:44:23;;;;;;;2.77;2.57;;;;;;;1.93;100.00;97731.84;5024966;28;20115;-56
2021/11/03 03:46:49;;;;;;;2.83;2.03;;;;;;;1.91;100.00;97736.88;5025186;28;20040;-56
2021/11/03 03:49:14;;;;;;;2.07;1.93;;;;;;;1.85;100.00;97736.91;5029909;28;20040;-54
2021/11/03 03:51:40;;;;;;;4.43;2.40;;;;;;;1.80;100.00;97738.56;5025845;28;20060;-54
2021/11/03 03:54:05;;;;;;;4.27;2.20;;;;;;;1.73;100.00;97740.25;5030011;28;20471;-55
2021/11/03 03:56:31;;;;;;;2.63;2.03;;;;;;;1.69;100.00;97727.63;5027538;28;20074;-54
2021/11/03 03:58:56;;;;;;;4.37;2.53;;;;;;;1.67;100.00;97740.25;5030880;28;20108;-55
2021/11/03 04:01:24;;;;;;;3.33;2.63;;;;;;;1.67;100.00;97737.72;5028661;28;20428;-54
2021/11/03 04:03:50;;;;;;;3.30;2.10;;;;;;;1.60;100.00;97743.59;5025723;28;20514;-55
2021/11/03 04:06:16;;;;;;;4.40;3.23;;;;;;;1.59;100.00;97733.50;5027798;28;20025;-54
2021/11/03 04:08:42;;;;;;;3.80;3.50;;;;;;;1.58;100.00;97750.31;5031092;28;20357;-54
2021/11/03 04:11:07;;;;;;;4.37;3.63;;;;;;;1.57;100.00;97735.19;5030624;28;20183;-55
2021/11/03 04:13:34;;;;;;;8.83;5.40;;;;;;;1.56;100.00;97739.38;5029612;28;20288;-55
2021/11/03 04:15:59;;;;;;;4.10;3.23;;;;;;;1.54;100.00;97740.22;5024140;28;20604;-55
2021/11/03 04:18:26;;;;;;;5.17;4.67;;;;;;;1.60;100.00;97745.28;5028367;28;20972;-54
2021/11/03 04:20:52;;;;;;;4.47;2.90;;;;;;;1.60;100.00;97743.59;5029156;28;20491;-56
2021/11/03 04:23:18;;;;;;;3.83;3.10;;;;;;;1.67;100.00;97746.97;5027662;28;20044;-55
2021/11/03 04:25:44;;;;;;;5.70;3.00;;;;;;;1.63;100.00;97753.72;5025132;28;20510;-57
2021/11/03 04:28:10;;;;;;;4.17;3.37;;;;;;;1.59;100.00;97733.50;5030321;28;20475;-60
2021/11/03 04:30:36;;;;;;;5.13;3.37;;;;;;;1.63;100.00;97732.66;5031341;28;20045;-57
2021/11/03 04:33:02;;;;;;;3.90;3.03;;;;;;;1.59;100.00;97724.22;5032363;28;20025;-57
2021/11/03 04:35:28;;;;;;;6.27;4.50;;;;;;;1.59;100.00;97718.34;5030884;28;20034;-56
2021/11/03 04:37:54;;;;;;;7.60;5.93;;;;;;;1.59;100.00;97719.19;5034521;28;20090;-58
2021/11/03 04:40:22;;;;;;;5.67;4.87;;;;;;;1.64;100.00;97709.09;5027965;28;20026;-56
2021/11/03 04:42:47;;;;;;;7.00;4.37;;;;;;;1.62;100.00;97713.28;5031793;28;20049;-59
2021/11/03 04:45:13;;;;;;;7.93;4.87;;;;;;;1.61;100.00;97709.09;5027333;28;20031;-59
2021/11/03 04:47:40;;;;;;;5.73;3.73;;;;;;;1.64;100.00;97714.97;5035157;28;20037;-55
2021/11/03 04:50:09;;;;;;;6.20;4.30;;;;;;;1.69;100.00;97715.84;5023580;28;20025;-59
2021/11/03 04:52:35;;;;;;;16.73;10.23;;;;;;;1.64;100.00;97717.50;5027615;28;20559;-58
2021/11/03 04:55:00;;;;;;;13.50;10.97;;;;;;;1.60;100.00;97718.34;5033103;28;20052;-55
2021/11/03 04:57:26;;;;;;;13.73;9.50;;;;;;;1.59;100.00;97718.34;5029674;28;20384;-55
2021/11/03 04:59:51;;;;;;;10.00;7.10;;;;;;;1.59;100.00;97719.19;5031166;28;20049;-58
2021/11/03 05:02:17;;;;;;;7.53;6.17;;;;;;;1.55;100.00;97716.66;5030241;28;20034;-58
2021/11/03 05:04:42;;;;;;;3.93;3.03;;;;;;;1.58;100.00;97707.38;5037295;28;20314;-59
2021/11/03 05:07:10;;;;;;;3.00;2.70;;;;;;;1.68;100.00;97708.25;5037326;28;20095;-55
2021/11/03 05:09:35;;;;;;;4.17;3.27;;;;;;;1.73;100.00;97707.41;5030466;28;20610;-59
2021/11/03 05:12:01;;;;;;;4.50;3.37;;;;;;;1.76;100.00;97702.34;5032766;28;20044;-57
2021/11/03 05:14:27;;;;;;;4.13;3.27;;;;;;;1.72;100.00;97700.66;5028742;28;20128;-59
2021/11/03 05:16:52;;;;;;;3.60;3.10;;;;;;;1.67;100.00;97702.34;5035527;28;20033;-59
2021/11/03 05:19:26;;;;;;;6.63;2.93;;;;;;;1.68;100.00;97708.25;5026615;28;20498;-58
2021/11/03 05:21:54;;;;;;;4.47;2.60;;;;;;;1.66;100.00;97713.28;5028146;28;20080;-58
2021/11/03 05:24:20;;;;;;;2.53;2.30;;;;;;;1.58;100.00;97714.97;5030717;28;20029;-58
2021/11/03 05:26:46;;;;;;;7.73;4.13;;;;;;;1.57;100.00;97713.25;5031640;28;20037;-57
2021/11/03 05:29:13;;;;;;;6.80;4.10;;;;;;;1.59;100.00;97715.81;5030699;28;20034;-57
2021/11/03 05:31:39;;;;;;;8.73;5.27;;;;;;;1.63;100.00;97713.28;5022520;28;20499;-58
2021/11/03 05:34:04;;;;;;;9.07;5.80;;;;;;;1.73;100.00;97712.47;5040128;28;20029;-55
2021/11/03 05:36:30;;;;;;;12.47;6.97;;;;;;;1.82;100.00;97709.91;5025844;28;20032;-57
2021/11/03 05:38:59;;;;;;;24.23;8.10;;;;;;;1.92;100.00;97707.41;5033806;28;20136;-59
2021/11/03 05:41:25;;;;;;;20.03;12.33;;;;;;;1.92;100.00;97714.97;5029771;28;20581;-59
2021/11/03 05:43:50;;;;;;;35.47;22.17;;;;;;;1.94;100.00;97713.31;5034414;28;20114;-55
2021/11/03 05:46:19;;;;;;;27.27;13.77;;;;;;;2.01;100.00;97713.31;5029791;28;20038;-56
2021/11/03 05:48:46;;;;;;;17.43;11.17;;;;;;;2.04;100.00;97714.97;5027964;28;20036;-53
2021/11/03 05:51:12;;;;;;;25.90;11.47;;;;;;;2.05;100.00;97715.00;5034584;28;20030;-56
2021/11/03 05:53:38;;;;;;;19.00;8.87;;;;;;;2.08;100.00;97711.63;5036175;28;20441;-59
2021/11/03 05:56:06;;;;;;;12.43;9.57;;;;;;;2.13;100.00;97709.94;5029531;28;20029;-56
2021/11/03 05:58:32;;;;;;;24.90;8.87;;;;;;;2.20;100.00;97714.16;5032375;28;20041;-54
2021/11/03 06:00:57;;;;;;;12.37;9.27;;;;;;;2.32;100.00;97723.41;5022127;28;20605;-56
2021/11/03 06:03:23;;;;;;;46.30;11.30;;;;;;;2.33;100.00;97720.03;5037563;28;20112;-58
2021/11/03 06:05:48;;;;;;;12.97;8.17;;;;;;;2.41;100.00;97716.66;5021989;28;20082;-57
2021/11/03 06:08:13;;;;;;;21.47;8.83;;;;;;;2.50;100.00;97701.47;5037137;28;20633;-56
2021/11/03 06:10:40;;;;;;;40.53;9.20;;;;;;;2.56;100.00;97715.75;5027436;28;20041;-55
2021/11/03 06:13:07;;;;;;;40.10;9.50;;;;;;;2.58;100.00;97707.34;5049056;28;20030;-57
2021/11/03 06:15:33;;;;;;;27.93;7.43;;;;;;;2.58;100.00;97706.50;5024251;28;20033;-55
2021/11/03 06:17:59;;;;;;;26.30;7.60;;;;;;;2.61;100.00;97709.84;5024220;28;20033;-60
2021/11/03 06:20:27;;;;;;;99.90;12.80;;;;;;;2.55;100.00;97702.28;5023633;28;20455;-55
2021/11/03 06:22:52;;;;;;;67.43;11.00;;;;;;;2.48;100.00;97685.44;5023140;28;20029;-56
2021/11/03 06:25:18;;;;;;;13.13;6.80;;;;;;;2.61;100.00;97701.44;5023821;28;20112;-58
2021/11/03 06:27:46;;;;;;;21.37;8.20;;;;;;;2.70;100.00;97699.72;5018928;28;20021;-58
2021/11/03 06:30:15;;;;;;;75.90;11.63;;;;;;;2.68;100.00;97700.56;5022791;28;20108;-56
2021/11/03 06:32:40;;;;;;;70.23;12.27;;;;;;;2.65;100.00;97703.09;5025127;28;20122;-60
2021/11/03 06:35:07;;;;;;;86.73;10.97;;;;;;;2.67;100.00;97716.59;5021814;28;20029;-59
2021/11/03 06:37:32;;;;;;;90.97;11.70;;;;;;;2.62;100.00;97709.03;5018585;28;20108;-58
2021/11/03 06:39:58;;;;;;;15.23;7.67;;;;;;;2.67;100.00;97697.19;5027018;28;20120;-57
2021/11/03 06:42:24;;;;;;;129.40;13.40;;;;;;;2.67;100.00;97709.00;5022569;28;20057;-58
2021/11/03 06:44:50;;;;;;;77.93;11.53;;;;;;;2.65;100.00;97692.97;5019462;28;20558;-56
2021/11/03 06:47:18;;;;;;;69.70;11.67;;;;;;;2.71;100.00;97703.09;5024084;28;20032;-59
2021/11/03 06:49:44;;;;;;;64.93;11.70;;;;;;;2.74;100.00;97706.44;5023389;28;20037;-58
2021/11/03 06:52:10;;;;;;;100.07;12.43;;;;;;;2.71;100.00;97701.41;5024235;28;20099;-59
2021/11/03 06:54:35;;;;;;;9.07;6.97;;;;;;;2.81;100.00;97714.84;5026408;28;20037;-59
2021/11/03 06:57:02;;;;;;;99.13;13.47;;;;;;;2.92;100.00;97714.84;5022916;28;20060;-59
2021/11/03 06:59:28;;;;;;;64.33;11.17;;;;;;;3.01;100.00;97715.63;5030516;28;20025;-57
2021/11/03 07:01:54;;;;;;;74.73;13.53;;;;;;;3.09;100.00;97713.06;5032563;28;20037;-60
2021/11/03 07:04:19;;;;;;;16.20;8.97;;;;;;;3.20;100.00;97719.78;5025627;28;20025;-59
2021/11/03 07:06:44;;;;;;;49.80;10.60;;;;;;;3.37;100.00;97722.22;5024848;28;20032;-58
2021/11/03 07:09:10;;;;;;;30.00;9.57;;;;;;;3.43;100.00;97729.78;5031737;28;20513;-59
2021/11/03 07:11:35;;;;;;;20.83;9.00;;;;;;;3.58;100.00;97726.31;5026011;28;20084;-58
2021/11/03 07:14:01;;;;;;;26.73;9.07;;;;;;;3.71;100.00;97727.94;5030308;28;20049;-54
2021/11/03 07:16:27;;;;;;;19.13;7.13;;;;;;;3.64;100.00;97717.00;5031039;28;20032;-58
2021/11/03 07:18:53;;;;;;;17.77;7.90;;;;;;;3.74;100.00;97705.09;5028144;28;20130;-58
2021/11/03 07:21:18;;;;;;;15.77;7.40;;;;;;;3.83;100.00;97707.56;5034298;28;20155;-54
2021/11/03 07:23:44;;;;;;;16.43;6.87;;;;;;;3.79;100.00;97702.50;5025257;28;20055;-56
2021/11/03 07:26:09;;;;;;;15.53;7.10;;;;;;;3.82;100.00;97700.78;5036143;28;20037;-58
2021/11/03 07:28:38;;;;;;;9.77;6.73;;;;;;;4.00;100.00;97699.81;5037740;28;20030;-56
2021/11/03 07:31:05;;;;;;;12.60;7.23;;;;;;;4.19;100.00;97708.13;5034602;28;20037;-57
2021/11/03 07:33:31;;;;;;;9.67;6.77;;;;;;;4.28;100.00;97701.28;5037320;28;20021;-57
2021/11/03 07:35:57;;;;;;;10.03;7.93;;;;;;;4.41;100.00;97699.47;5030177;28;20029;-57
2021/11/03 07:38:22;;;;;;;7.30;6.37;;;;;;;4.35;100.00;97696.97;5033208;28;20361;-55
2021/11/03 07:40:52;;;;;;;6.47;5.70;;;;;;;4.18;100.00;97689.53;5029807;28;20136;-60
2021/11/03 07:43:19;;;;;;;6.37;5.77;;;;;;;4.36;100.00;97685.97;5030810;28;20540;-58
2021/11/03 07:45:47;;;;;;;7.40;6.23;;;;;;;4.43;100.00;97688.44;5030515;28;20061;-57
2021/11/03 07:48:13;;;;;;;7.60;5.60;;;;;;;4.51;100.00;97690.91;5029699;28;20033;-57
2021/11/03 07:50:43;;;;;;;7.50;5.97;;;;;;;4.62;100.00;97684.03;5027818;28;20038;-55
2021/11/03 07:53:09;;;;;;;7.70;6.30;;;;;;;4.76;100.00;97678.78;5025056;28;20211;-58
2021/11/03 07:55:36;;;;;;;7.73;6.17;;;;;;;4.84;100.00;97669.38;5038258;28;20033;-58
2021/11/03 07:58:03;;;;;;;7.23;5.70;;;;;;;4.80;100.00;97665.19;5028098;28;20029;-58
2021/11/03 08:00:32;;;;;;;8.27;6.57;;;;;;;4.63;100.00;97662.84;5030935;28;20041;-57
2021/11/03 08:02:58;;;;;;;7.43;6.17;;;;;;;4.49;100.00;97670.63;5031770;28;20134;-58
2021/11/03 08:05:28;;;;;;;7.77;6.47;;;;;;;4.58;100.00;97664.63;5034021;28;20124;-55
2021/11/03 08:07:56;;;;;;;8.27;6.53;;;;;;;4.59;100.00;97678.97;5030560;28;20374;-57
2021/11/03 08:10:23;;;;;;;9.03;6.90;;;;;;;4.71;100.00;97680.56;5028995;28;20395;-55
2021/11/03 08:12:51;;;;;;;10.20;7.33;;;;;;;4.90;100.00;97672.69;5035033;28;20029;-57
2021/11/03 08:15:16;;;;;;;11.93;7.37;;;;;;;5.07;100.00;97667.41;5032515;28;20030;-55
2021/11/03 08:17:42;;;;;;;9.70;7.40;;;;;;;5.25;100.00;97666.31;5033239;28;20541;-54
2021/11/03 08:20:11;;;;;;;9.77;6.80;;;;;;;5.40;100.00;97664.41;5034327;28;20441;-57
2021/11/03 08:22:37;;;;;;;11.30;7.53;;;;;;;5.57;100.00;97664.16;5029181;28;20047;-57
2021/11/03 08:25:03;;;;;;;9.93;7.23;;;;;;;5.74;100.00;97653.72;5033304;28;20029;-55
2021/11/03 08:27:28;;;;;;;11.47;8.33;;;;;;;5.88;100.00;97651.84;5029714;28;20037;-55
2021/11/03 08:29:54;;;;;;;11.47;8.60;;;;;;;5.87;100.00;97651.00;5025593;28;20055;-57
2021/11/03 08:32:24;;;;;;;10.00;7.37;;;;;;;6.00;100.00;97638.06;5022107;28;20087;-57
2021/11/03 08:34:51;;;;;;;8.63;7.40;;;;;;;6.13;100.00;97637.84;5042006;28;20029;-56
2021/11/03 08:37:20;;;;;;;8.17;6.93;;;;;;;6.24;100.00;97635.09;5027528;28;20040;-57
2021/11/03 08:39:49;;;;;;;8.77;6.63;;;;;;;6.38;100.00;97638.25;5031800;28;20079;-55
2021/11/03 08:42:14;;;;;;;10.30;8.17;;;;;;;6.45;100.00;97639.00;5033292;28;20056;-59
2021/11/03 08:44:40;;;;;;;9.93;8.03;;;;;;;6.59;100.00;97637.84;5034108;28;20034;-58
2021/11/03 08:47:10;;;;;;;19.83;11.70;;;;;;;6.95;100.00;97638.00;5032487;28;20034;-55
2021/11/03 08:49:36;;;;;;;13.23;9.70;;;;;;;7.26;100.00;97627.09;5027276;28;20036;-53
2021/11/03 08:52:04;;;;;;;13.30;9.87;;;;;;;7.50;100.00;97610.44;5034063;28;20132;-59
2021/11/03 08:54:30;;;;;;;10.83;9.53;;;;;;;7.85;100.00;97608.75;5031359;28;20030;-54
2021/11/03 08:56:55;;;;;;;10.27;7.83;;;;;;;8.16;100.00;97604.53;5031450;28;20482;-51
2021/11/03 08:59:21;;;;;;;7.87;6.73;;;;;;;8.44;100.00;97602.97;5029926;28;20041;-51
2021/11/03 09:01:46;;;;;;;8.27;6.80;;;;;;;8.72;100.00;97608.16;5031982;28;20484;-57
2021/11/03 09:04:12;;;;;;;7.63;6.77;;;;;;;8.95;100.00;97590.44;5037417;28;20025;-59
2021/11/03 09:06:38;;;;;;;8.57;7.10;;;;;;;8.97;100.00;97585.28;5024196;28;20038;-56
2021/11/03 09:09:05;;;;;;;6.97;6.18;;;;;;;9.34;100.00;97590.13;5022491;28;20053;-57
2021/11/03 09:11:32;;;;;;;6.55;5.40;;;;;;;9.48;100.00;97588.81;5023539;28;20045;-57
2021/11/03 09:13:58;;;;;;;5.15;4.57;;;;;;;9.67;100.00;97593.34;5022583;28;20038;-55
2021/11/03 09:16:24;;;;;;;7.03;5.72;;;;;;;9.77;100.00;97595.56;5021479;28;20033;-54
2021/11/03 09:18:50;;;;;;;5.75;5.20;;;;;;;10.04;100.00;97588.69;5025769;28;20038;-56
2021/11/03 09:21:17;;;;;;;6.45;5.03;;;;;;;10.16;100.00;97584.91;5027911;28;20033;-56
2021/11/03 09:23:43;;;;;;;5.70;5.07;;;;;;;10.33;100.00;97577.50;5027082;28;20054;-59
2021/11/03 09:26:09;;;;;;;5.05;4.38;;;;;;;10.41;100.00;97590.88;5024699;28;20099;-55
2021/11/03 09:28:35;;;;;;;5.30;4.63;;;;;;;10.44;100.00;97586.47;5024887;28;20535;-57
2021/11/03 09:31:03;;;;;;;6.20;4.38;;;;;;;10.61;100.00;97592.75;5031401;28;20036;-54
2021/11/03 09:33:33;;;;;;;5.35;4.78;;;;;;;10.85;100.00;97579.03;5028676;28;20037;-53
2021/11/03 09:35:59;;;;;;;4.68;3.95;;;;;;;11.04;100.00;97581.72;5027035;28;20477;-55
2021/11/03 09:38:26;;;;;;;4.93;4.35;;;;;;;11.22;100.00;97566.47;5026172;28;20033;-59
2021/11/03 09:41:23;;;;;;;6.65;3.90;;;;;;;11.43;100.00;97562.25;5029917;28;20391;-54
2021/11/03 09:44:14;;;;;;;5.68;4.80;;;;;;;11.62;100.00;97558.06;5021129;28;20065;-54
2021/11/03 09:46:43;;;;;;;5.63;4.00;;;;;;;11.78;100.00;97556.56;5023058;28;20041;-56
2021/11/03 09:49:09;;;;;;;8.93;7.18;;;;;;;12.02;100.00;97543.59;5033529;28;20537;-56
2021/11/03 09:51:36;;;;;;;12.23;8.98;;;;;;;12.28;100.00;97536.44;5026771;28;20449;-57
2021/11/03 09:54:05;;;;;;;6.20;5.43;;;;;;;12.47;100.00;97527.94;5027006;28;20068;-55
2021/11/03 09:56:36;;;;;;;7.47;5.95;;;;;;;12.58;100.00;97525.72;5027809;28;20111;-57
2021/11/03 09:59:19;;;;;;;4.70;3.47;;;;;;;12.76;100.00;97510.31;5035114;28;20029;-56
2021/11/03 10:01:57;;;;;;;5.63;3.55;;;;;;;12.71;100.00;97501.97;5032467;28;20033;-57
2021/11/03 10:04:34;;;;;;;4.53;2.88;;;;;;;12.98;100.00;97496.44;5030800;28;20042;-55
2021/11/03 10:07:18;;;;;;;3.22;2.92;;;;;;;13.13;100.00;97488.03;5027284;28;20041;-56
2021/11/03 10:09:43;;;;;;;1.90;1.80;;;;;;;13.14;100.00;97487.97;5031038;28;20379;-56
2021/11/03 10:12:15;;;;;;;1.63;1.52;;;;;;;13.27;100.00;97490.78;5028293;28;20079;-59
2021/11/03 10:14:42;;;;;;;3.17;2.17;;;;;;;13.39;100.00;97489.34;5022257;28;20128;-59
2021/11/03 10:17:37;;;;;;;5.30;2.17;;;;;;;13.40;100.00;97486.72;5023115;28;20049;-57
2021/11/03 10:20:19;;;;;;;1.95;1.83;;;;;;;13.51;100.00;97484.44;5018207;28;20048;-55
2021/11/03 10:22:45;;;;;;;2.42;2.22;;;;;;;13.60;100.00;97480.59;5026900;28;20041;-56
2021/11/03 10:25:17;;;;;;;2.40;2.20;;;;;;;13.67;100.00;97487.09;5023190;28;20025;-55
2021/11/03 10:27:47;;;;;;;2.28;1.73;;;;;;;13.72;100.00;97475.66;5028329;28;20032;-58
2021/11/03 10:30:24;;;;;;;3.80;1.75;;;;;;;13.87;99.25;97470.66;5024443;28;20037;-57
2021/11/03 10:32:50;;;;;;;1.60;1.50;;;;;;;13.85;99.19;97470.72;5023910;28;20132;-58
2021/11/03 10:35:27;;;;;;;3.13;1.88;;;;;;;13.96;97.67;97463.25;5023854;28;20112;-58
2021/11/03 10:38:20;;;;;;;3.00;1.95;;;;;;;14.04;95.88;97452.59;5029138;28;20025;-56
2021/11/03 10:41:02;;;;;;;4.60;1.95;;;;;;;14.03;94.59;97446.59;5023489;28;20044;-57
2021/11/03 10:43:35;;;;;;;2.47;2.05;;;;;;;14.17;95.28;97438.16;5025972;28;20128;-55
2021/11/03 10:46:17;;;;;;;1.83;1.70;;;;;;;14.12;94.60;97427.25;5028218;28;20020;-56
2021/11/03 10:48:45;;;;;;;3.15;2.35;;;;;;;14.18;95.53;97425.16;5025277;28;20482;-57
2021/11/03 10:51:18;;;;;;;2.40;1.80;;;;;;;14.22;94.73;97418.09;5041031;28;20103;-56
2021/11/03 10:54:03;;;;;;;3.88;2.63;;;;;;;14.42;93.70;97419.66;5028699;28;20036;-58
2021/11/03 10:56:33;;;;;;;2.87;1.60;;;;;;;14.54;93.30;97414.69;5036783;28;20026;-57
2021/11/03 10:59:24;;;;;;;2.20;1.85;;;;;;;14.55;91.41;97392.31;5024522;28;20034;-56
2021/11/03 11:01:49;;;;;;;3.80;2.03;;;;;;;14.50;91.59;97387.38;5027954;28;20030;-57
2021/11/03 11:04:29;;;;;;;6.55;2.10;;;;;;;14.71;92.61;97385.38;5023666;28;20032;-59
2021/11/03 11:06:56;;;;;;;5.05;2.00;;;;;;;14.72;91.45;97391.38;5024635;28;20038;-54
2021/11/03 11:09:28;;;;;;;2.28;1.48;;;;;;;14.70;87.58;97388.03;5025886;28;20060;-59
2021/11/03 11:11:58;;;;;;;2.40;2.20;;;;;;;14.36;90.45;97384.72;5024015;28;20041;-54
2021/11/03 11:14:26;;;;;;;4.85;2.05;;;;;;;14.22;91.27;97388.91;5029956;28;20361;-58
2021/11/03 11:17:01;;;;;;;2.22;1.70;;;;;;;14.08;94.04;97384.50;5024033;28;20033;-58
2021/11/03 11:19:45;;;;;;;2.78;2.00;;;;;;;13.88;94.04;97405.31;5022002;28;20033;-55
2021/11/03 11:22:29;;;;;;;3.30;2.20;;;;;;;13.77;95.73;97402.47;5025054;28;20037;-56
2021/11/03 11:24:58;;;;;;;1.85;1.63;;;;;;;13.80;95.47;97403.13;5027465;28;20117;-59
2021/11/03 11:27:34;;;;;;;1.63;1.50;;;;;;;14.07;94.51;97393.97;5020294;28;20446;-56
2021/11/03 11:30:16;;;;;;;3.05;1.63;;;;;;;13.95;94.53;97386.91;5022416;28;20037;-56
2021/11/03 11:33:23;;;;;;;3.55;1.90;;;;;;;13.81;94.09;97384.19;5025848;28;20395;-58
2021/11/03 11:36:16;;;;;;;3.17;2.00;;;;;;;14.09;94.75;97376.66;5005648;28;20038;-57